CES110 ZLLL-EDDF
Flight info
| Callsign | CES110 |
|---|---|
| Flight time | N/A |
| Altitude | 34100 |
| Route | ANDIM B215 FKG A368 SARIN/K0915F341 N161 GASBI/N0494F341 N161 LEYLA N644 TETRO M10 SARPI UM10 GOKPA UL746 ODERO DCT LUGEB DCT DEGET DCT ARSIN DCT SUBEN DCT AKINI T161 DEBHI SPESA5B |
| Aircraft | A359/H-SDE2E3GHIJ3J4J5LM1ORWXY/LB1D1 |
Departure
| Time | 2026-04-24 16:12 |
|---|---|
| Airport | Lanzhou Zhongchuan International Airport (ZLLL) |
Arrival
| Time | N/A |
|---|---|
| Airport | Frankfurt Main Airport (EDDF) |
| Time | Latitude | Longitude | Altitude | Speed | Heading |
|---|---|---|---|---|---|
| 2026-04-24 15:51 | 36.50754 | 103.61726 | 6351 ft | 0 kts | 301° |
| 2026-04-24 16:05 | 36.50743 | 103.61749 | 6351 ft | 3 kts | 301° |
| 2026-04-24 16:05 | 36.50730 | 103.61775 | 6350 ft | 3 kts | 301° |
| 2026-04-24 16:06 | 36.50713 | 103.61808 | 6350 ft | 3 kts | 291° |
| 2026-04-24 16:06 | 36.50710 | 103.61832 | 6354 ft | 3 kts | 252° |
| 2026-04-24 16:06 | 36.50727 | 103.61859 | 6349 ft | 0 kts | 193° |
| 2026-04-24 16:07 | 36.50720 | 103.61857 | 6349 ft | 5 kts | 192° |
| 2026-04-24 16:08 | 36.50660 | 103.61888 | 6349 ft | 12 kts | 147° |
| 2026-04-24 16:08 | 36.50459 | 103.61932 | 6350 ft | 17 kts | 176° |
| 2026-04-24 16:09 | 36.50182 | 103.61957 | 6346 ft | 23 kts | 176° |
| 2026-04-24 16:09 | 36.50017 | 103.61968 | 6338 ft | 25 kts | 177° |
| 2026-04-24 16:09 | 36.49916 | 103.61999 | 6336 ft | 2 kts | 123° |
| 2026-04-24 16:09 | 36.49914 | 103.62043 | 6336 ft | 10 kts | 92° |
| 2026-04-24 16:10 | 36.49980 | 103.62177 | 6336 ft | 0 kts | 2° |
| 2026-04-24 16:11 | 36.50575 | 103.62139 | 6347 ft | 109 kts | 357° |
| 2026-04-24 16:11 | 36.51546 | 103.62074 | 6363 ft | 169 kts | 356° |
| 2026-04-24 16:11 | 36.52841 | 103.61930 | 6786 ft | 185 kts | 352° |
| 2026-04-24 16:12 | 36.55291 | 103.61654 | 8353 ft | 189 kts | 4° |
| 2026-04-24 16:12 | 36.56691 | 103.61794 | 8712 ft | 212 kts | 3° |
| 2026-04-24 16:12 | 36.59808 | 103.61862 | 9060 ft | 239 kts | 359° |
| 2026-04-24 16:13 | 36.61526 | 103.61805 | 9222 ft | 254 kts | 358° |
| 2026-04-24 16:13 | 36.65207 | 103.61612 | 9844 ft | 275 kts | 357° |
| 2026-04-24 16:14 | 36.69196 | 103.61233 | 10334 ft | 300 kts | 354° |
| 2026-04-24 16:14 | 36.71309 | 103.60976 | 10564 ft | 311 kts | 354° |
| 2026-04-24 16:14 | 36.75787 | 103.60503 | 10953 ft | 335 kts | 356° |
| 2026-04-24 16:15 | 36.77382 | 103.60408 | 11096 ft | 343 kts | 356° |
| 2026-04-24 16:15 | 36.83042 | 103.60059 | 11785 ft | 356 kts | 354° |
| 2026-04-24 16:16 | 36.87680 | 103.57878 | 12451 ft | 362 kts | 323° |
| 2026-04-24 16:16 | 36.89661 | 103.55930 | 12895 ft | 363 kts | 321° |
| 2026-04-24 16:17 | 36.95552 | 103.49845 | 14132 ft | 368 kts | 321° |
| 2026-04-24 16:17 | 36.99518 | 103.45763 | 14875 ft | 371 kts | 321° |
| 2026-04-24 16:18 | 37.03521 | 103.41644 | 15637 ft | 375 kts | 321° |
| 2026-04-24 16:18 | 37.07538 | 103.37504 | 16422 ft | 377 kts | 321° |
| 2026-04-24 16:18 | 37.09567 | 103.35412 | 16810 ft | 378 kts | 321° |
| 2026-04-24 16:19 | 37.13623 | 103.31141 | 17519 ft | 384 kts | 317° |
| 2026-04-24 16:19 | 37.15309 | 103.28520 | 17869 ft | 390 kts | 303° |
| 2026-04-24 16:20 | 37.17227 | 103.22084 | 18607 ft | 399 kts | 290° |
| 2026-04-24 16:20 | 37.18826 | 103.15377 | 19233 ft | 402 kts | 290° |
| 2026-04-24 16:20 | 37.19633 | 103.12014 | 19531 ft | 404 kts | 290° |
| 2026-04-24 16:21 | 37.21260 | 103.05225 | 20159 ft | 408 kts | 290° |
| 2026-04-24 16:21 | 37.22082 | 103.01804 | 20492 ft | 410 kts | 290° |
| 2026-04-24 16:21 | 37.22906 | 102.98374 | 20831 ft | 411 kts | 290° |
| 2026-04-24 16:22 | 37.23736 | 102.94931 | 21167 ft | 413 kts | 291° |
| 2026-04-24 16:22 | 37.25398 | 102.87996 | 21760 ft | 417 kts | 291° |
| 2026-04-24 16:22 | 37.26224 | 102.84538 | 22062 ft | 419 kts | 291° |
| 2026-04-24 16:23 | 37.27061 | 102.81031 | 22350 ft | 420 kts | 291° |
| 2026-04-24 16:23 | 37.27902 | 102.77502 | 22639 ft | 422 kts | 291° |
| 2026-04-24 16:23 | 37.28746 | 102.73959 | 22928 ft | 424 kts | 290° |
| 2026-04-24 16:24 | 37.30442 | 102.66834 | 23489 ft | 428 kts | 290° |
| 2026-04-24 16:24 | 37.31291 | 102.63244 | 23749 ft | 430 kts | 290° |
| 2026-04-24 16:24 | 37.32145 | 102.59638 | 24003 ft | 431 kts | 290° |
| 2026-04-24 16:24 | 37.33001 | 102.56026 | 24291 ft | 431 kts | 290° |
| 2026-04-24 16:25 | 37.33855 | 102.52408 | 24531 ft | 432 kts | 290° |
| 2026-04-24 16:25 | 37.34709 | 102.48778 | 24778 ft | 433 kts | 290° |
| 2026-04-24 16:25 | 37.35565 | 102.45139 | 25073 ft | 434 kts | 290° |
| 2026-04-24 16:26 | 37.37128 | 102.37803 | 25690 ft | 434 kts | 287° |
| 2026-04-24 16:26 | 37.37830 | 102.34101 | 25984 ft | 435 kts | 287° |
| 2026-04-24 16:26 | 37.39245 | 102.26739 | 26400 ft | 438 kts | 287° |
| 2026-04-24 16:27 | 37.39968 | 102.23017 | 26656 ft | 439 kts | 287° |
| 2026-04-24 16:27 | 37.40697 | 102.19274 | 26922 ft | 440 kts | 287° |
| 2026-04-24 16:27 | 37.41423 | 102.15526 | 27153 ft | 441 kts | 287° |
| 2026-04-24 16:27 | 37.42150 | 102.11765 | 27390 ft | 443 kts | 287° |
| 2026-04-24 16:28 | 37.42885 | 102.07995 | 27650 ft | 444 kts | 287° |
| 2026-04-24 16:28 | 37.43621 | 102.04217 | 27848 ft | 446 kts | 287° |
| 2026-04-24 16:28 | 37.45097 | 101.96656 | 28401 ft | 448 kts | 287° |
| 2026-04-24 16:29 | 37.45844 | 101.92838 | 28656 ft | 450 kts | 287° |
| 2026-04-24 16:29 | 37.46596 | 101.88995 | 28882 ft | 452 kts | 287° |
| 2026-04-24 16:29 | 37.48110 | 101.81282 | 29419 ft | 454 kts | 287° |
| 2026-04-24 16:30 | 37.49641 | 101.73526 | 29903 ft | 458 kts | 287° |
| 2026-04-24 16:30 | 37.50406 | 101.69674 | 30198 ft | 459 kts | 287° |
| 2026-04-24 16:30 | 37.51183 | 101.65766 | 30435 ft | 460 kts | 287° |
| 2026-04-24 16:31 | 37.51977 | 101.61865 | 30698 ft | 461 kts | 287° |
| 2026-04-24 16:31 | 37.52801 | 101.57956 | 30904 ft | 462 kts | 289° |
| 2026-04-24 16:31 | 37.53896 | 101.54143 | 31082 ft | 462 kts | 296° |
| 2026-04-24 16:31 | 37.55339 | 101.50535 | 31348 ft | 460 kts | 301° |
| 2026-04-24 16:32 | 37.56373 | 101.48207 | 31574 ft | 459 kts | 301° |
| 2026-04-24 16:32 | 37.58459 | 101.43514 | 32020 ft | 457 kts | 301° |
| 2026-04-24 16:32 | 37.60021 | 101.40027 | 32338 ft | 456 kts | 301° |
| 2026-04-24 16:32 | 37.61589 | 101.36556 | 32648 ft | 455 kts | 301° |
| 2026-04-24 16:33 | 37.63162 | 101.33094 | 32953 ft | 454 kts | 302° |
| 2026-04-24 16:33 | 37.64735 | 101.29642 | 33246 ft | 453 kts | 302° |
| 2026-04-24 16:33 | 37.66311 | 101.26190 | 33481 ft | 454 kts | 302° |
| 2026-04-24 16:33 | 37.67885 | 101.22741 | 33751 ft | 454 kts | 302° |
| 2026-04-24 16:34 | 37.69438 | 101.19332 | 34041 ft | 453 kts | 302° |
| 2026-04-24 16:34 | 37.71008 | 101.15883 | 34151 ft | 454 kts | 302° |
| 2026-04-24 16:34 | 37.74157 | 101.08948 | 34165 ft | 455 kts | 302° |
| 2026-04-24 16:35 | 37.77303 | 101.01996 | 34162 ft | 456 kts | 302° |
| 2026-04-24 16:35 | 37.80448 | 100.95040 | 34147 ft | 456 kts | 301° |
| 2026-04-24 16:36 | 37.83590 | 100.88071 | 34147 ft | 455 kts | 301° |
| 2026-04-24 16:36 | 37.86727 | 100.81102 | 34141 ft | 456 kts | 301° |
| 2026-04-24 16:37 | 37.89837 | 100.74178 | 34143 ft | 455 kts | 301° |
| 2026-04-24 16:37 | 37.92964 | 100.67201 | 34137 ft | 455 kts | 301° |
| 2026-04-24 16:38 | 37.96088 | 100.60216 | 34138 ft | 456 kts | 301° |
| 2026-04-24 16:38 | 37.99209 | 100.53220 | 34142 ft | 456 kts | 301° |
| 2026-04-24 16:39 | 38.02320 | 100.46229 | 34127 ft | 455 kts | 301° |
| 2026-04-24 16:39 | 38.05427 | 100.39235 | 34121 ft | 455 kts | 301° |
| 2026-04-24 16:40 | 38.08529 | 100.32235 | 34123 ft | 455 kts | 301° |
| 2026-04-24 16:40 | 38.11626 | 100.25232 | 34112 ft | 455 kts | 301° |
| 2026-04-24 16:41 | 38.14721 | 100.18220 | 34115 ft | 455 kts | 301° |
| 2026-04-24 16:41 | 38.17786 | 100.11255 | 34109 ft | 454 kts | 301° |
| 2026-04-24 16:42 | 38.20864 | 100.04248 | 34112 ft | 454 kts | 301° |
| 2026-04-24 16:42 | 38.23941 | 99.97232 | 34107 ft | 454 kts | 301° |
| 2026-04-24 16:43 | 38.27019 | 99.90201 | 34101 ft | 454 kts | 301° |
| 2026-04-24 16:43 | 38.30089 | 99.83164 | 34082 ft | 455 kts | 301° |
| 2026-04-24 16:44 | 38.33156 | 99.76122 | 34106 ft | 454 kts | 301° |
| 2026-04-24 16:44 | 38.36192 | 99.69133 | 34106 ft | 453 kts | 301° |
| 2026-04-24 16:45 | 38.39243 | 99.62097 | 34109 ft | 453 kts | 301° |
| 2026-04-24 16:45 | 38.42291 | 99.55051 | 34107 ft | 453 kts | 301° |
| 2026-04-24 16:46 | 38.45330 | 99.48009 | 34101 ft | 453 kts | 301° |
| 2026-04-24 16:46 | 38.48363 | 99.40974 | 34106 ft | 450 kts | 302° |
| 2026-04-24 16:47 | 38.51376 | 99.33972 | 34098 ft | 448 kts | 302° |
| 2026-04-24 16:47 | 38.54376 | 99.26965 | 34106 ft | 449 kts | 302° |
| 2026-04-24 16:48 | 38.57350 | 99.20006 | 34101 ft | 449 kts | 302° |
| 2026-04-24 16:48 | 38.60340 | 99.13001 | 34116 ft | 449 kts | 302° |
| 2026-04-24 16:49 | 38.63322 | 99.05995 | 34107 ft | 448 kts | 302° |
| 2026-04-24 16:49 | 38.66293 | 98.99006 | 34112 ft | 446 kts | 302° |
| 2026-04-24 16:50 | 38.69254 | 98.92023 | 34114 ft | 446 kts | 302° |
| 2026-04-24 16:50 | 38.72213 | 98.85030 | 34115 ft | 446 kts | 302° |
| 2026-04-24 16:51 | 38.74669 | 98.79215 | 34108 ft | 447 kts | 302° |
| 2026-04-24 16:51 | 38.77623 | 98.72206 | 34110 ft | 447 kts | 302° |
| 2026-04-24 16:52 | 38.81052 | 98.64046 | 34108 ft | 447 kts | 302° |
| 2026-04-24 16:52 | 38.83526 | 98.58147 | 34107 ft | 449 kts | 302° |
| 2026-04-24 16:53 | 38.86462 | 98.51131 | 34105 ft | 450 kts | 302° |
| 2026-04-24 16:53 | 38.89415 | 98.44057 | 34092 ft | 449 kts | 302° |
| 2026-04-24 16:54 | 38.92365 | 98.36976 | 34098 ft | 449 kts | 302° |
| 2026-04-24 16:54 | 38.95309 | 98.29891 | 34087 ft | 447 kts | 302° |
| 2026-04-24 16:55 | 38.98231 | 98.22844 | 34090 ft | 445 kts | 302° |
| 2026-04-24 16:55 | 39.01140 | 98.15814 | 34089 ft | 445 kts | 302° |
| 2026-04-24 16:56 | 39.04028 | 98.08821 | 34095 ft | 446 kts | 302° |
| 2026-04-24 16:56 | 39.06934 | 98.01768 | 34095 ft | 446 kts | 302° |
| 2026-04-24 16:57 | 39.09840 | 97.94700 | 34078 ft | 446 kts | 302° |
| 2026-04-24 16:57 | 39.12737 | 97.87635 | 34099 ft | 446 kts | 302° |
| 2026-04-24 16:58 | 39.15627 | 97.80569 | 34103 ft | 445 kts | 302° |
| 2026-04-24 16:58 | 39.18507 | 97.73508 | 34102 ft | 445 kts | 302° |
| 2026-04-24 16:59 | 39.21388 | 97.66431 | 34107 ft | 445 kts | 302° |
| 2026-04-24 17:00 | 39.25695 | 97.55815 | 34105 ft | 444 kts | 301° |
| 2026-04-24 17:00 | 39.29944 | 97.45262 | 34106 ft | 443 kts | 301° |
| 2026-04-24 17:01 | 39.34199 | 97.34668 | 34110 ft | 443 kts | 301° |
| 2026-04-24 17:02 | 39.38445 | 97.24064 | 34107 ft | 443 kts | 301° |
| 2026-04-24 17:02 | 39.41271 | 97.16989 | 34091 ft | 442 kts | 301° |
| 2026-04-24 17:03 | 39.45495 | 97.06377 | 34081 ft | 442 kts | 301° |
| 2026-04-24 17:04 | 39.48315 | 96.99301 | 34088 ft | 442 kts | 301° |
| 2026-04-24 17:04 | 39.52564 | 96.88703 | 34075 ft | 442 kts | 301° |
| 2026-04-24 17:05 | 39.55379 | 96.81669 | 34085 ft | 443 kts | 301° |
| 2026-04-24 17:06 | 39.59629 | 96.71004 | 34077 ft | 444 kts | 300° |
| 2026-04-24 17:06 | 39.63851 | 96.60373 | 34083 ft | 443 kts | 300° |
| 2026-04-24 17:07 | 39.66658 | 96.53261 | 34088 ft | 443 kts | 300° |
| 2026-04-24 17:08 | 39.72244 | 96.39011 | 34052 ft | 443 kts | 300° |
| 2026-04-24 17:08 | 39.75037 | 96.31872 | 34051 ft | 442 kts | 299° |
| 2026-04-24 17:09 | 39.80605 | 96.17590 | 34007 ft | 443 kts | 299° |
| 2026-04-24 17:10 | 39.86139 | 96.03329 | 33990 ft | 443 kts | 298° |
| 2026-04-24 17:12 | 39.97186 | 95.74659 | 33956 ft | 442 kts | 298° |